Hualapai Flat, Nevada Weather observations

Data are for 10 minute period ending at time listed.
 Day   Time   Solar   Ave.   Ave.  Ave.  Vector  Max.   Baro.   Total    
  of    of     Rad.   Air    Rel.  Wind   Wind   Wind  Press.  Precip.   
Year   Day            Temp.  Hum.  Speed  Dir.   Gust                    
2014   (PST)  Kw/m2    F      %     mph   deg.    mph    mb.     in.     
-------------------------------------------------------------------------
 292    0:30   0.00   41.4    46    7.2   281     8.0   874.6    0.00 
 292    0:40   0.00   40.5    47    6.1   298     6.9   874.6    0.00 
 292    0:50   0.00   42.3    45    4.1   309     5.7   874.6    0.00 
 292    1:00   0.00   40.3    46    6.4   286     7.6   874.6    0.00 
 292    1:10   0.00   39.8    47    6.3   291     7.8   874.6    0.00 
 292    1:20   0.00   41.2    46    6.1   301     7.1   874.5    0.00 
 292    1:30   0.00   39.8    51    3.4   321     5.0   874.5    0.00 
 292    1:40   0.00   39.0    52    4.9   328     6.4   874.5    0.00 
 292    1:50   0.00   40.2    49    6.6   323     7.6   874.5    0.00 
 292    2:00   0.00   42.0    46    5.7   314     6.6   874.4    0.00 
 292    2:10   0.00   39.0    48    6.1   303     7.5   874.3    0.00 
 292    2:20   0.00   36.5    52    6.5   294     7.2   874.3    0.00 
 292    2:30   0.00   37.2    50    7.1   294     8.6   874.2    0.00 
 292    2:40   0.00   38.9    49    6.7   295     8.2   874.2    0.00 
 292    2:50   0.00   39.8    50    6.3   316     8.4   874.2    0.00 
 292    3:00   0.00   40.7    49    6.0   323     7.2   874.2    0.00 
 292    3:10   0.00   39.6    49    5.8   305     7.3   874.2    0.00 
 292    3:20   0.00   37.7    51    6.3   294     7.3   874.2    0.00 
 292    3:30   0.00   36.3    51    6.5   288     7.2   874.2    0.00 
 292    3:40   0.00   35.9    54    5.1   312     7.6   874.2    0.00 
 292    3:50   0.00   35.6    54    3.8   350     4.6   874.2    0.00 
 292    4:00   0.00   37.4    50    4.5   314     6.4   874.2    0.00 
 292    4:10   0.00   37.4    50    6.4   293     7.2   874.3    0.00 
 292    4:20   0.00   36.7    51    7.0   285     7.4   874.3    0.00 
 292    4:30   0.00   36.6    52    6.6   288     7.4   874.3    0.00 
 292    4:40   0.00   36.5    54    1.7   303     6.2   874.3    0.00 
 292    4:50   0.00   36.4    54    1.7    70     2.7   874.4    0.00 
 292    5:00   0.00   36.0    51    0.7    16     2.3   874.4    0.00 
 292    5:10   0.00   38.9    47    3.2   306     4.5   874.5    0.00 
 292    5:20   0.00   41.1    44    4.1   305     5.4   874.5    0.00 
 292    5:30   0.00   39.1    48    5.1   300     5.9   874.5    0.00 
 292    5:40   0.00   37.1    50    4.5   304     5.3   874.5    0.00 
 292    5:50   0.00   35.3    54    4.3   310     5.3   874.5    0.00 
 292    6:00   0.00   36.1    51    5.1   302     7.0   874.6    0.00 
 292    6:10   0.00   34.7    54    6.2   299     7.2   874.7    0.00 
 292    6:20   0.01   34.8    53    6.2   293     7.5   874.8    0.00 
 292    6:30   0.02   36.5    50    4.9   291     5.9   874.9    0.00 
 292    6:40   0.04   37.6    49    4.8   289     5.7   874.9    0.00 
 292    6:50   0.07   37.1    52    4.8   301     5.9   875.0    0.00 
 292    7:00   0.10   38.2    56    3.6   326     4.4   875.0    0.00 
 292    7:10   0.13   41.0    52    2.5   309     3.5   875.1    0.00 
 292    7:20   0.15   43.0    47    3.0   290     4.2   875.1    0.00 
 292    7:30   0.18   45.5    42    2.7   295     3.5   875.2    0.00 
 292    7:40   0.21   47.6    40    2.3   311     2.9   875.3    0.00 
 292    7:50   0.24   49.1    38    1.3   337     2.6   875.5    0.00 
 292    8:00   0.27   50.8    36    1.9    24     3.1   875.6    0.00 
 292    8:10   0.30   50.9    35    1.8    81     2.8   875.7    0.00 
 292    8:20   0.33   52.2    37    1.8   129     3.4   875.8    0.00 
 292    8:30   0.35   53.8    35    2.1   148     3.0   875.9    0.00 
 292    8:40   0.38   55.6    37    2.7   184     4.1   875.9    0.00 
 292    8:50   0.41   57.8    33    1.8   183     3.3   876.0    0.00 
 292    9:00   0.43   58.5    32    0.9   168     2.4   876.1    0.00 
 292    9:10   0.45   57.9    33    1.4   123     3.3   876.2    0.00 
 292    9:20   0.48   58.5    32    1.2   143     3.4   876.1    0.00 
 292    9:30   0.50   59.9    30    2.0   128     3.4   876.1    0.00 
 292    9:40   0.52   61.3    28    2.1   155     4.3   876.0    0.00 
 292    9:50   0.54   62.1    27    1.7   139     3.6   875.9    0.00 
 292   10:00   0.55   63.8    26    1.6   186     3.7   875.8    0.00 
 292   10:10   0.57   64.4    25    2.1   213     4.5   875.8    0.00 
 292   10:20   0.58   65.9    24    2.2   194     4.6   875.8    0.00 
 292   10:30   0.59   66.1    24    2.0   164     4.4   875.8    0.00 
 292   10:40   0.60   66.4    24    2.7   147     4.7   875.7    0.00 
 292   10:50   0.61   64.7    24    2.1   126     4.7   875.7    0.00 
 292   11:00   0.62   66.3    24    1.8   128     5.0   875.6    0.00 
 292   11:10   0.63   66.5    23    2.3   118     5.7   875.6    0.00 
 292   11:20   0.63   66.8    23    1.5    82     5.4   875.4    0.00 
 292   11:30   0.63   67.5    22    2.2   185     6.3   875.0    0.00 
 292   11:40   0.64   68.2    23    4.4   118     8.1   874.8    0.00 
 292   11:50   0.64   67.9    23    3.2   113     6.2   874.7    0.00 
 292   12:00   0.64   68.7    22    1.0    88     5.3   874.6    0.00 
 292   12:10   0.63   70.4    22    2.5   151     6.1   874.4    0.00 
 292   12:20   0.63   70.5    22    3.3   152     6.5   874.3    0.00 
 292   12:30   0.62   69.9    22    4.1   112     8.0   874.1    0.00 
 292   12:40   0.61   71.0    22    3.9   159     7.7   873.9    0.00 
 292   12:50   0.60   71.8    22    4.6   149     9.1   873.7    0.00 
 292   13:00   0.59   72.0    22    5.5   155    10.2   873.6    0.00 
 292   13:10   0.58   72.7    22    5.2   152     9.4   873.5    0.00 
 292   13:20   0.57   71.5    22    5.5   120    11.5   873.3    0.00 
 292   13:30   0.55   71.1    20    4.8    86     8.4   873.1    0.00 
 292   13:40   0.53   71.5    21    4.8   106    10.9   872.9    0.00 
 292   13:50   0.52   73.1    21    3.6   139     8.0   872.8    0.00 
 292   14:00   0.49   73.9    22    4.4   156     8.9   872.7    0.00 
 292   14:10   0.47   73.5    22    6.0   135    11.2   872.5    0.00 
 292   14:20   0.45   74.0    21    4.8   151     8.8   872.5    0.00 
 292   14:30   0.42   74.2    21    4.6   124     9.0   872.4    0.00 
 292   14:40   0.40   72.6    23    5.6   129    12.2   872.4    0.00 
 292   14:50   0.37   73.6    23    9.1   153    15.7   872.3    0.00 
 292   15:00   0.35   73.7    23    9.1   176    14.5   872.3    0.00 
 292   15:10   0.32   74.7    21   10.2   182    15.7   872.2    0.00 
 292   15:20   0.29   74.7    20    9.8   190    13.1   872.3    0.00 
 292   15:30   23.27  4244.0    29    6.4    23   99999.0   1460.2   23.40 
 292   15:40   100.00  99999.0   99999  99999.0   99999   99999.0   99999.0   99999.00 
 292   15:50   100.00  99999.0   99999  99999.0   99999   99999.0   99999.0   99999.00 
 292   16:00   100.00  99999.0   99999  99999.0   99999   99999.0   99999.0   99999.00 
 292   16:10   100.00  99999.0   99999  99999.0   99999   99999.0   99999.0   99999.00 
 292   16:20   100.00  99999.0   99999  99999.0   99999   99999.0   99999.0   99999.00 
 292   16:30   0.10   69.4    28    5.4   193     6.7   872.0    0.00 
 292   16:40   0.07   68.1    30    4.9   197     6.0   872.1    0.00 
 292   16:50   0.05   65.8    30    3.9   177     7.5   872.1    0.00 
 292   17:00   0.01   64.9    28    4.0   180     5.7   872.1    0.00 
 292   17:10   0.01   63.5    28    3.1   179     4.4   872.1    0.00 
 292   17:20   0.00   62.5    26    3.5   181     4.5   872.0    0.00 
 292   17:30   0.00   61.6    27    3.3   189     5.3   872.1    0.00 
 292   17:40   0.00   61.2    24    5.6   251     7.3   872.1    0.00 
 292   17:50   0.00   61.0    24    5.7   255     7.9   872.2    0.00 
 292   18:00   0.00   64.1    21    4.1   241     5.0   872.2    0.00 
 292   18:10   0.00   60.2    23    5.3   263     6.7   872.2    0.00 
 292   18:20   0.00   58.4    25    4.6   270     6.9   872.2    0.00 
 292   18:30   0.00   55.9    28    6.3   291     8.4   872.2    0.00 
 292   18:40   0.00   55.8    28    5.6   288     7.7   872.2    0.00 
 292   18:50   0.00   56.4    27    4.1   277     7.5   872.2    0.00 
 292   19:00   0.00   57.8    28    3.9   327     6.7   872.2    0.00 
 292   19:10   0.00   54.7    31    4.2   347     5.7   872.2    0.00 
 292   19:20   0.00   56.1    29    3.8     7     5.6   872.2    0.00 
 292   19:30   0.00   52.4    34    5.1    11     6.5   872.2    0.00 
 292   19:40   0.00   52.7    33    5.9   346     8.1   872.2    0.00 
 292   19:50   0.00   53.2    33    5.0   330     6.6   872.1    0.00 
 292   20:00   0.00   51.9    35    4.3   332     5.7   872.1    0.00 
 292   20:10   0.00   50.2    37    3.7    44     6.1   872.2    0.00 
 292   20:20   0.00   46.5    43    3.9   359     5.7   872.2    0.00 
 292   20:30   0.00   51.0    37    7.5   341     9.3   872.1    0.00 
 292   20:40   0.00   53.7    33    8.4   323     9.8   872.1    0.00 
 292   20:50   0.00   56.6    30    6.8   332     8.3   872.1    0.00 
 292   21:00   0.00   54.9    32    5.3   334     7.7   872.1    0.00 
 292   21:10   0.00   52.4    34    2.3    30     4.3   872.1    0.00 
 292   21:20   0.00   53.4    32    4.3   354     5.8   872.1    0.00 
 292   21:30   0.00   53.9    32    5.2   299     7.7   872.1    0.00 
 292   21:40   0.00   51.0    34    2.1   211     3.8   872.3    0.00 
 292   21:50   0.00   53.7    32    6.6   261    10.6   872.2    0.00 
 292   22:00   0.00   59.2    28    8.8   286    12.1   872.2    0.00 
 292   22:10   0.00   57.6    29    2.7   240     7.4   872.4    0.00 
 292   22:20   0.00   54.8    32    2.8   254     4.7   872.4    0.00 
 292   22:30   0.00   54.5    32    4.2    76     6.3   872.3    0.00 
 292   22:40   0.00   52.2    36    3.1    16     5.4   872.1    0.00 
 292   22:50   0.00   51.1    36    4.2   348     6.4   872.1    0.00 
 292   23:00   0.00   50.6    34    3.3   308     6.3   872.1    0.00 
 292   23:10   0.00   53.3    32    4.8   312     6.9   872.1    0.00 
 292   23:20   0.00   51.8    33    5.5   323     6.6   872.1    0.00 
 292   23:30   0.00   50.6    35    3.6   330     5.6   872.1    0.00 
 292   23:40   0.00   51.5    35    4.0   347     6.1   872.0    0.00 
 292   23:50   0.00   52.1    32    2.8   325     5.0   872.1    0.00 
 293    0:00   0.00   53.6    32    5.6   331     8.6   872.0    0.00 
 293    0:10   0.00   52.9    33    5.6   335     8.7   872.0    0.00 
 293    0:20   0.00   53.9    31    3.3   297     5.6   872.0    0.00 

Return to Hualapai Flat graphs page.


Western Regional Climate Center,wrcc@dri.edu